Main page
METAR-TAF:

METAR-TAF

Airports :

Taranto-Grottaglie Airport

Taranto, Italy

latitude: 40-31N, longitude: 017-24E, elevation: 64 m

Current weather observation

The report was made 4 hours and 31 minutes ago, at 17:50 UTC
Wind 2 kt from variable directions
Temperature 35°C
Humidity 27%
Pressure 1007 hPa
Visibility 10 km or more
no clouds below 1500 m and no cumulonimbus

METAR: LIBG 201750Z VRB02KT CAVOK 35/13 Q1007

Time: 00:21 (22:21 UTC)

Forecast

The report was made 8 hours and 21 minutes ago, at 14:00 UTC
Forecast valid from 20 at 15 UTC to 20 at 24 UTC
Wind 12 kt from the South/Southwest
Visibility 10 km or more
no clouds below 1500 m and no cumulonimbus
Becoming
from 20 at 18 UTC to 20 at 20 UTC
Wind 5 kt from variable directions

TAF: LIBG 201400Z 2015/2024 20012KT CAVOK BECMG 2018/2020 VRB05KT

Weather observations and forecasts of more than 4000 airports (METAR and TAF reports).

The available stations are represented by yellow and red dots on the map.

Hover mouse over dot to see the name of the station.

Then click to see weather observations and forecasts.

To change the map : click on the green buttons with a black cross to zoom in, on the green button with a dash to zoom out, or on the green arrows for adjacent maps.


METAR-TAF: